createdAt,value
2023-02-23T00:02:14.368Z,-0.27
2023-02-23T00:04:51.884Z,-0.27
2023-02-23T00:07:30.058Z,-0.28
2023-02-23T00:10:02.331Z,-0.31
2023-02-23T00:12:41.147Z,-0.31
2023-02-23T00:15:19.515Z,-0.31
2023-02-23T00:17:58.048Z,-0.33
2023-02-23T00:20:35.194Z,-0.36
2023-02-23T00:23:13.005Z,-0.36
2023-02-23T00:25:51.340Z,-0.37
2023-02-23T00:28:31.206Z,-0.38
2023-02-23T00:31:12.265Z,-0.38
2023-02-23T00:33:52.102Z,-0.41
2023-02-23T00:36:35.157Z,-0.41
2023-02-23T00:39:27.191Z,-0.40
2023-02-23T00:42:07.025Z,-0.41
2023-02-23T00:44:44.790Z,-0.42
2023-02-23T00:47:14.962Z,-0.41
2023-02-23T00:49:52.604Z,-0.41
2023-02-23T00:52:30.336Z,-0.41
2023-02-23T00:55:00.490Z,-0.42
2023-02-23T00:57:36.844Z,-0.45
2023-02-23T01:00:24.457Z,-0.45
2023-02-23T01:02:56.337Z,-0.43
2023-02-23T01:05:36.082Z,-0.41
2023-02-23T01:08:15.742Z,-0.39
2023-02-23T01:10:55.578Z,-0.37
2023-02-23T01:13:33.647Z,-0.37
2023-02-23T01:16:20.101Z,-0.38
2023-02-23T01:18:57.037Z,-0.41
2023-02-23T01:21:45.880Z,-0.35
2023-02-23T01:24:18.630Z,-0.36
2023-02-23T01:26:56.589Z,-0.36
2023-02-23T01:29:34.826Z,-0.34
2023-02-23T01:32:13.175Z,-0.31
2023-02-23T01:34:51.062Z,-0.29
2023-02-23T01:37:28.625Z,-0.28
2023-02-23T01:40:15.843Z,-0.30
2023-02-23T01:42:54.522Z,-0.29
2023-02-23T01:45:40.664Z,-0.30
2023-02-23T01:48:24.558Z,-0.31
2023-02-23T01:51:09.558Z,-0.31
2023-02-23T01:53:57.835Z,-0.29
2023-02-23T01:56:38.382Z,-0.31
2023-02-23T01:59:19.696Z,-0.36
2023-02-23T02:01:57.348Z,-0.34
2023-02-23T02:04:46.543Z,-0.34
2023-02-23T02:07:30.584Z,-0.34
2023-02-23T02:10:12.374Z,-0.36
2023-02-23T02:12:52.291Z,-0.37
2023-02-23T02:15:39.072Z,-0.37
2023-02-23T02:18:54.002Z,-0.40
2023-02-23T02:21:52.269Z,-0.44
2023-02-23T02:24:37.787Z,-0.47
2023-02-23T02:27:39.844Z,-0.48
2023-02-23T02:30:47.071Z,-0.43
2023-02-23T02:33:46.276Z,-0.41
2023-02-23T02:37:20.103Z,-0.45
2023-02-23T02:40:34.775Z,-0.46
2023-02-23T02:43:29.338Z,-0.47
2023-02-23T02:46:23.082Z,-0.52
2023-02-23T02:49:08.246Z,-0.59
2023-02-23T02:52:08.646Z,-0.63
2023-02-23T02:54:59.136Z,-0.65
2023-02-23T02:57:33.678Z,-0.65
2023-02-23T03:00:26.595Z,-0.64
2023-02-23T03:03:23.853Z,-0.62
2023-02-23T03:06:22.043Z,-0.63
2023-02-23T03:09:51.470Z,-0.59
2023-02-23T03:13:26.889Z,-0.53
2023-02-23T03:16:47.193Z,-0.50
2023-02-23T03:19:58.610Z,-0.52
2023-02-23T03:23:31.156Z,-0.52
2023-02-23T03:26:42.300Z,-0.57
2023-02-23T03:30:12.056Z,-0.61
2023-02-23T03:33:18.542Z,-0.68
2023-02-23T03:36:36.691Z,-0.70
2023-02-23T03:40:06.159Z,-0.67
2023-02-23T03:43:04.054Z,-0.68
2023-02-23T03:45:57.034Z,-0.69
2023-02-23T03:48:55.857Z,-0.71
2023-02-23T03:51:57.679Z,-0.74
2023-02-23T03:55:16.751Z,-0.77
2023-02-23T03:58:15.149Z,-0.81
2023-02-23T04:01:13.691Z,-0.80
2023-02-23T04:04:13.047Z,-0.75
2023-02-23T04:07:06.808Z,-0.72
2023-02-23T04:10:06.126Z,-0.65
2023-02-23T04:13:18.902Z,-0.61
2023-02-23T04:16:10.734Z,-0.59
2023-02-23T04:18:48.599Z,-0.57
2023-02-23T04:21:26.700Z,-0.56
2023-02-23T04:24:03.836Z,-0.55
2023-02-23T04:26:41.576Z,-0.47
2023-02-23T04:29:19.529Z,-0.40
2023-02-23T04:31:57.141Z,-0.40
2023-02-23T04:34:35.191Z,-0.39
2023-02-23T04:37:13.818Z,-0.38
2023-02-23T04:39:51.764Z,-0.38
2023-02-23T04:42:30.489Z,-0.42
2023-02-23T04:45:10.300Z,-0.42
2023-02-23T04:47:48.794Z,-0.43
2023-02-23T04:50:26.690Z,-0.39
2023-02-23T04:53:04.371Z,-0.36
2023-02-23T04:55:34.627Z,-0.36
2023-02-23T04:58:16.285Z,-0.36
2023-02-23T05:00:53.276Z,-0.36
2023-02-23T05:03:31.329Z,-0.35
2023-02-23T05:06:10.155Z,-0.35
2023-02-23T05:08:47.938Z,-0.36
2023-02-23T05:11:28.393Z,-0.32
2023-02-23T05:14:06.665Z,-0.29
2023-02-23T05:16:44.159Z,-0.26
2023-02-23T05:19:16.278Z,-0.30
2023-02-23T05:21:55.073Z,-0.36
2023-02-23T05:24:32.779Z,-0.39
2023-02-23T05:27:10.818Z,-0.38
2023-02-23T05:29:49.022Z,-0.36
2023-02-23T05:32:27.307Z,-0.35
2023-02-23T05:34:57.649Z,-0.28
2023-02-23T05:37:35.355Z,-0.18
2023-02-23T05:40:07.253Z,-0.12
2023-02-23T05:42:45.357Z,-0.12
2023-02-23T05:45:22.822Z,-0.13
2023-02-23T05:47:59.722Z,-0.14
2023-02-23T05:50:37.631Z,-0.17
2023-02-23T05:53:08.183Z,-0.20
2023-02-23T05:55:39.958Z,-0.21
2023-02-23T05:58:15.370Z,-0.22
2023-02-23T06:00:52.877Z,-0.15
2023-02-23T06:03:30.193Z,-0.09
2023-02-23T06:06:08.305Z,-0.08
2023-02-23T06:08:46.053Z,-0.03
2023-02-23T06:11:23.870Z,0.02
2023-02-23T06:14:03.101Z,0.06
2023-02-23T06:16:41.010Z,0.06
2023-02-23T06:19:18.154Z,0.04
2023-02-23T06:21:55.001Z,0.01
2023-02-23T06:24:32.016Z,0.05
2023-02-23T06:27:04.915Z,0.13
2023-02-23T06:29:37.912Z,0.19
2023-02-23T06:32:16.262Z,0.24
2023-02-23T06:34:52.743Z,0.29
2023-02-23T06:37:30.352Z,0.29
2023-02-23T06:40:08.309Z,0.34
2023-02-23T06:42:45.261Z,0.33
2023-02-23T06:45:22.515Z,0.34
2023-02-23T06:47:59.669Z,0.34
2023-02-23T06:50:37.297Z,0.33
2023-02-23T06:53:14.553Z,0.37
2023-02-23T06:55:52.458Z,0.43
2023-02-23T06:58:29.829Z,0.45
2023-02-23T07:01:00.131Z,0.48
2023-02-23T07:03:37.154Z,0.57
2023-02-23T07:06:14.016Z,0.67
2023-02-23T07:08:51.020Z,0.74
2023-02-23T07:11:29.177Z,0.81
2023-02-23T07:14:10.679Z,0.84
2023-02-23T07:16:51.478Z,0.90
2023-02-23T07:19:29.391Z,0.94
2023-02-23T07:22:07.337Z,0.99
2023-02-23T07:24:44.865Z,1.06
2023-02-23T07:27:21.642Z,1.19
2023-02-23T07:29:59.388Z,1.29
2023-02-23T07:32:30.830Z,1.20
2023-02-23T07:35:02.382Z,1.20
2023-02-23T07:37:38.425Z,1.20
2023-02-23T07:40:17.641Z,1.26
2023-02-23T07:42:55.976Z,1.37
2023-02-23T07:45:33.586Z,1.55
2023-02-23T07:48:11.487Z,1.60
2023-02-23T07:50:44.307Z,1.57
2023-02-23T07:53:23.016Z,1.54
2023-02-23T07:56:10.548Z,1.47
2023-02-23T07:58:48.374Z,1.52
2023-02-23T08:01:26.073Z,1.49
2023-02-23T08:03:58.252Z,1.52
2023-02-23T08:06:37.241Z,1.69
2023-02-23T08:09:12.831Z,1.86
2023-02-23T08:11:43.378Z,2.01
2023-02-23T08:14:26.536Z,2.03
2023-02-23T08:17:02.044Z,2.04
2023-02-23T08:19:33.487Z,2.09
2023-02-23T08:22:11.204Z,2.24
2023-02-23T08:24:49.869Z,2.34
2023-02-23T08:27:27.569Z,2.54
2023-02-23T08:30:07.385Z,2.98
2023-02-23T08:32:46.081Z,3.35
2023-02-23T08:35:23.324Z,3.70
2023-02-23T08:37:54.811Z,3.63
2023-02-23T08:40:34.386Z,3.89
2023-02-23T08:43:05.752Z,4.04
2023-02-23T08:45:40.670Z,4.17
2023-02-23T08:48:19.758Z,4.32
2023-02-23T08:51:00.563Z,4.16
2023-02-23T08:53:34.902Z,4.16
2023-02-23T08:56:15.766Z,4.01
2023-02-23T08:58:53.454Z,3.92
2023-02-23T09:01:31.160Z,3.97
2023-02-23T09:04:01.936Z,3.96
2023-02-23T09:06:36.205Z,4.23
2023-02-23T09:09:16.013Z,4.40
2023-02-23T09:11:47.098Z,4.31
2023-02-23T09:14:21.627Z,4.19
2023-02-23T09:16:54.282Z,4.14
2023-02-23T09:19:33.967Z,3.98
2023-02-23T09:22:12.090Z,4.09
2023-02-23T09:24:49.871Z,4.42
2023-02-23T09:27:21.595Z,4.68
2023-02-23T09:29:52.671Z,4.69
2023-02-23T09:32:24.666Z,4.92
2023-02-23T09:35:02.127Z,5.01
2023-02-23T09:37:35.583Z,5.20
2023-02-23T09:40:15.407Z,5.36
2023-02-23T09:43:14.840Z,5.59
2023-02-23T09:46:14.883Z,5.80
2023-02-23T09:48:53.515Z,5.86
2023-02-23T09:51:33.653Z,5.82
2023-02-23T09:54:06.881Z,5.76
2023-02-23T09:56:46.189Z,5.65
2023-02-23T09:59:27.095Z,5.58
2023-02-23T10:02:40.766Z,5.42
2023-02-23T10:05:19.704Z,5.47
2023-02-23T10:08:25.685Z,5.51
2023-02-23T10:11:29.089Z,5.55
2023-02-23T10:14:21.652Z,5.58
2023-02-23T10:17:31.388Z,5.64
2023-02-23T10:20:29.986Z,5.76
2023-02-23T10:23:12.615Z,5.70
2023-02-23T10:25:53.349Z,5.87
2023-02-23T10:28:25.199Z,5.87
2023-02-23T10:31:05.272Z,5.65
2023-02-23T10:33:46.120Z,5.71
2023-02-23T10:37:00.145Z,5.63
2023-02-23T10:39:35.998Z,5.66
2023-02-23T10:42:17.298Z,5.60
2023-02-23T10:44:54.273Z,5.58
2023-02-23T10:47:39.831Z,5.56
2023-02-23T10:50:18.709Z,5.62
2023-02-23T10:53:02.600Z,5.67
2023-02-23T10:55:40.024Z,5.87
2023-02-23T10:58:23.601Z,5.89
2023-02-23T11:01:04.251Z,6.06
2023-02-23T11:04:05.372Z,5.92
2023-02-23T11:06:46.436Z,5.85
2023-02-23T11:09:48.475Z,5.97
2023-02-23T11:12:44.530Z,5.90
2023-02-23T11:15:50.766Z,5.89
2023-02-23T11:18:26.642Z,5.85
2023-02-23T11:21:05.089Z,5.99
2023-02-23T11:23:44.635Z,5.88
2023-02-23T11:26:47.011Z,5.80
2023-02-23T11:29:45.224Z,5.66
2023-02-23T11:32:31.858Z,5.53
2023-02-23T11:35:23.940Z,5.54
2023-02-23T11:37:56.353Z,5.46
2023-02-23T11:40:37.130Z,5.43
2023-02-23T11:43:15.416Z,5.38
2023-02-23T11:45:54.666Z,5.40
2023-02-23T11:49:05.238Z,5.37
2023-02-23T11:51:49.751Z,5.41
2023-02-23T11:54:39.527Z,5.46
2023-02-23T11:57:26.592Z,5.52
2023-02-23T12:00:04.300Z,5.54
2023-02-23T12:02:56.104Z,5.60
2023-02-23T12:05:36.318Z,5.55
2023-02-23T12:08:44.530Z,5.62
2023-02-23T12:11:29.733Z,5.53
2023-02-23T12:14:44.148Z,5.49
2023-02-23T12:17:38.683Z,5.45
2023-02-23T12:20:33.096Z,5.45
2023-02-23T12:23:13.011Z,5.54
2023-02-23T12:26:00.544Z,5.62
2023-02-23T12:28:59.423Z,5.61
2023-02-23T12:32:13.785Z,5.64
2023-02-23T12:35:31.021Z,5.53
2023-02-23T12:38:33.654Z,5.47
2023-02-23T12:41:34.469Z,5.52
2023-02-23T12:44:49.236Z,5.53
2023-02-23T12:47:47.667Z,5.58
2023-02-23T12:50:44.100Z,5.57
2023-02-23T12:53:33.147Z,5.52
2023-02-23T12:56:24.834Z,5.53
2023-02-23T12:59:52.674Z,5.60
2023-02-23T13:02:53.337Z,5.64
2023-02-23T13:05:58.562Z,5.59
2023-02-23T13:08:46.339Z,5.62
2023-02-23T13:11:28.024Z,5.67
2023-02-23T13:14:33.164Z,5.72
2023-02-23T13:17:25.192Z,5.77
2023-02-23T13:20:26.152Z,5.81
2023-02-23T13:23:33.794Z,5.78
2023-02-23T13:26:50.601Z,5.71
2023-02-23T13:29:26.775Z,5.67
2023-02-23T13:32:02.247Z,5.72
2023-02-23T13:34:56.406Z,5.67
2023-02-23T13:38:21.396Z,5.59
2023-02-23T13:41:28.821Z,5.60
2023-02-23T13:44:44.389Z,5.58
2023-02-23T13:48:28.691Z,5.59
2023-02-23T13:51:52.410Z,5.63
2023-02-23T13:54:35.333Z,5.61
2023-02-23T13:57:18.919Z,5.68
2023-02-23T13:59:52.886Z,5.74
2023-02-23T14:02:48.805Z,5.79
2023-02-23T14:05:29.926Z,5.77
2023-02-23T14:08:06.808Z,5.75
2023-02-23T14:10:47.212Z,5.74
2023-02-23T14:13:23.471Z,5.70
2023-02-23T14:16:20.698Z,5.74
2023-02-23T14:19:12.185Z,5.71
2023-02-23T14:21:59.942Z,5.75
2023-02-23T14:24:30.544Z,5.81
2023-02-23T14:27:45.237Z,5.81
2023-02-23T14:30:22.707Z,5.82
2023-02-23T14:33:21.155Z,5.79
2023-02-23T14:35:55.504Z,5.77
2023-02-23T14:38:48.121Z,5.73
2023-02-23T14:41:51.618Z,5.71
2023-02-23T14:44:33.227Z,5.72
2023-02-23T14:47:14.940Z,5.66
2023-02-23T14:50:00.694Z,5.60
2023-02-23T14:52:47.443Z,5.59
2023-02-23T14:55:38.497Z,5.59
2023-02-23T14:58:33.849Z,5.59
2023-02-23T15:01:11.716Z,5.60
2023-02-23T15:04:06.636Z,5.66
2023-02-23T15:06:47.666Z,5.59
2023-02-23T15:09:44.832Z,5.58
2023-02-23T15:12:40.647Z,5.58
2023-02-23T15:15:26.379Z,5.56
2023-02-23T15:18:14.895Z,5.53
2023-02-23T15:20:53.834Z,5.51
2023-02-23T15:23:41.463Z,5.50
2023-02-23T15:26:32.443Z,5.43
2023-02-23T15:29:15.444Z,5.47
2023-02-23T15:31:54.245Z,5.45
2023-02-23T15:34:31.045Z,5.43
2023-02-23T15:37:28.640Z,5.41
2023-02-23T15:40:20.219Z,5.38
2023-02-23T15:43:05.293Z,5.35
2023-02-23T15:45:49.462Z,5.30
2023-02-23T15:48:32.741Z,5.25
2023-02-23T15:51:23.261Z,5.19
2023-02-23T15:53:54.933Z,5.14
2023-02-23T15:56:34.628Z,5.11
2023-02-23T15:59:25.873Z,5.07
2023-02-23T16:02:13.561Z,5.05
2023-02-23T16:04:57.434Z,5.03
2023-02-23T16:07:43.789Z,4.98
2023-02-23T16:10:29.268Z,4.95
2023-02-23T16:13:07.595Z,4.91
2023-02-23T16:15:47.921Z,4.88
2023-02-23T16:18:39.333Z,4.85
2023-02-23T16:21:21.880Z,4.80
2023-02-23T16:23:56.144Z,4.76
2023-02-23T16:26:46.457Z,4.72
2023-02-23T16:29:43.989Z,4.67
2023-02-23T16:32:32.762Z,4.63
2023-02-23T16:35:24.939Z,4.60
2023-02-23T16:38:23.357Z,4.56
2023-02-23T16:41:02.156Z,4.52
2023-02-23T16:43:37.420Z,4.49
2023-02-23T16:46:13.146Z,4.45
2023-02-23T16:48:52.305Z,4.42
2023-02-23T16:51:30.852Z,4.39
2023-02-23T16:54:11.217Z,4.38
2023-02-23T16:56:51.261Z,4.35
2023-02-23T16:59:30.484Z,4.34
2023-02-23T17:02:11.485Z,4.31
2023-02-23T17:04:51.323Z,4.18
2023-02-23T17:07:30.127Z,4.22
2023-02-23T17:10:10.680Z,4.18
2023-02-23T17:12:48.645Z,4.08
2023-02-23T17:15:23.501Z,4.10
2023-02-23T17:17:57.560Z,4.04
2023-02-23T17:20:33.247Z,3.99
2023-02-23T17:23:13.460Z,3.96
2023-02-23T17:25:51.440Z,3.94
2023-02-23T17:28:29.113Z,3.92
2023-02-23T17:31:08.807Z,3.90
2023-02-23T17:33:46.829Z,3.86
2023-02-23T17:36:27.877Z,3.87
2023-02-23T17:39:06.801Z,3.91
2023-02-23T17:41:38.473Z,3.92
2023-02-23T17:44:17.212Z,3.90
2023-02-23T17:46:55.243Z,3.91
2023-02-23T17:49:31.552Z,3.88
2023-02-23T17:52:09.017Z,3.83
2023-02-23T17:54:47.753Z,3.79
2023-02-23T17:57:18.360Z,3.77
2023-02-23T17:59:55.939Z,3.79
2023-02-23T18:02:32.104Z,3.76
2023-02-23T18:05:11.713Z,3.74
2023-02-23T18:07:50.652Z,3.72
2023-02-23T18:10:28.096Z,3.70
2023-02-23T18:13:07.264Z,3.68
2023-02-23T18:15:37.915Z,3.74
2023-02-23T18:18:15.810Z,3.79
2023-02-23T18:21:01.055Z,3.85
2023-02-23T18:23:33.382Z,3.85
2023-02-23T18:26:16.658Z,3.83
2023-02-23T18:28:56.363Z,3.81
2023-02-23T18:31:33.124Z,3.80
2023-02-23T18:34:03.305Z,3.82
2023-02-23T18:36:37.097Z,3.75
2023-02-23T18:39:15.542Z,3.77
2023-02-23T18:41:53.902Z,3.76
2023-02-23T18:44:34.056Z,3.77
2023-02-23T18:47:05.999Z,3.77
2023-02-23T18:49:37.539Z,3.77
2023-02-23T18:52:16.241Z,3.80
2023-02-23T18:54:57.261Z,3.77
2023-02-23T18:57:36.101Z,3.79
2023-02-23T19:00:16.821Z,3.75
2023-02-23T19:02:54.952Z,3.71
2023-02-23T19:05:26.669Z,3.66
2023-02-23T19:07:58.008Z,3.70
2023-02-23T19:10:36.663Z,3.75
2023-02-23T19:13:14.436Z,3.80
2023-02-23T19:15:53.824Z,3.79
2023-02-23T19:18:31.275Z,3.80
2023-02-23T19:21:09.749Z,3.79
2023-02-23T19:23:41.930Z,3.73
2023-02-23T19:26:13.656Z,3.65
2023-02-23T19:28:52.097Z,3.65
2023-02-23T19:31:26.526Z,3.64
2023-02-23T19:33:58.743Z,3.61
2023-02-23T19:36:36.534Z,3.60
2023-02-23T19:39:11.094Z,3.64
2023-02-23T19:41:44.619Z,3.67
2023-02-23T19:44:22.275Z,3.67
2023-02-23T19:46:59.769Z,3.57
2023-02-23T19:49:38.111Z,3.63
2023-02-23T19:52:16.194Z,3.60
2023-02-23T19:54:54.427Z,3.60
2023-02-23T19:57:24.590Z,3.58
2023-02-23T20:00:00.785Z,3.61
2023-02-23T20:02:31.315Z,3.62
2023-02-23T20:05:02.103Z,3.65
2023-02-23T20:07:32.528Z,3.63
2023-02-23T20:10:05.920Z,3.60
2023-02-23T20:12:40.291Z,3.57
2023-02-23T20:15:18.625Z,3.54
2023-02-23T20:17:57.717Z,3.50
2023-02-23T20:20:36.905Z,3.48
2023-02-23T20:23:09.690Z,3.45
2023-02-23T20:25:43.173Z,3.48
2023-02-23T20:28:20.413Z,3.52
2023-02-23T20:30:58.598Z,3.52
2023-02-23T20:33:35.950Z,3.48
2023-02-23T20:36:13.572Z,3.46
2023-02-23T20:38:44.467Z,3.41
2023-02-23T20:41:22.774Z,3.37
2023-02-23T20:44:01.462Z,3.32
2023-02-23T20:46:40.641Z,3.26
2023-02-23T20:49:19.678Z,3.22
2023-02-23T20:51:57.389Z,3.21
2023-02-23T20:54:35.134Z,3.23
2023-02-23T20:57:10.794Z,3.18
2023-02-23T20:59:40.930Z,3.14
2023-02-23T21:02:14.739Z,3.11
2023-02-23T21:04:45.430Z,3.09
2023-02-23T21:07:27.179Z,3.05
2023-02-23T21:10:02.900Z,3.06
2023-02-23T21:12:33.767Z,3.07
2023-02-23T21:15:15.001Z,3.02
2023-02-23T21:17:45.239Z,3.04
2023-02-23T21:20:23.129Z,3.07
2023-02-23T21:23:00.700Z,3.07
2023-02-23T21:25:31.951Z,3.06
2023-02-23T21:28:03.709Z,3.01
2023-02-23T21:30:40.896Z,2.98
2023-02-23T21:33:17.931Z,2.97
2023-02-23T21:35:48.112Z,2.92
2023-02-23T21:38:25.148Z,2.93
2023-02-23T21:41:01.467Z,2.98
2023-02-23T21:43:38.725Z,3.00
2023-02-23T21:46:17.029Z,2.97
2023-02-23T21:48:55.556Z,2.97
2023-02-23T21:51:26.449Z,2.97
2023-02-23T21:54:03.959Z,2.93
2023-02-23T21:56:41.500Z,2.98
2023-02-23T21:59:20.048Z,2.97
2023-02-23T22:01:50.213Z,3.02
2023-02-23T22:04:27.332Z,3.08
2023-02-23T22:07:04.812Z,3.03
2023-02-23T22:09:36.365Z,2.94
2023-02-23T22:12:08.356Z,2.90
2023-02-23T22:14:42.543Z,2.84
2023-02-23T22:17:20.482Z,2.79
2023-02-23T22:19:54.449Z,2.83
2023-02-23T22:22:29.181Z,2.84
2023-02-23T22:25:10.612Z,2.82
2023-02-23T22:27:45.353Z,2.84
2023-02-23T22:30:23.024Z,2.86
2023-02-23T22:33:00.329Z,2.84
2023-02-23T22:35:30.504Z,2.85
2023-02-23T22:38:05.906Z,2.81
2023-02-23T22:40:45.556Z,2.78
2023-02-23T22:43:23.787Z,2.87
2023-02-23T22:46:01.741Z,2.90
2023-02-23T22:48:38.914Z,2.95
2023-02-23T22:51:19.951Z,2.98
2023-02-23T22:53:57.921Z,3.06
2023-02-23T22:56:36.836Z,3.11
2023-02-23T22:59:17.909Z,3.13
2023-02-23T23:01:56.736Z,3.14
2023-02-23T23:04:27.316Z,3.15
2023-02-23T23:06:58.860Z,3.16
2023-02-23T23:09:29.715Z,3.17
2023-02-23T23:12:07.104Z,3.22
2023-02-23T23:14:42.758Z,3.27
2023-02-23T23:17:20.595Z,3.31
2023-02-23T23:19:57.768Z,3.31
2023-02-23T23:22:36.624Z,3.28
2023-02-23T23:25:20.818Z,3.26
2023-02-23T23:27:58.623Z,3.23
2023-02-23T23:30:52.489Z,3.19
2023-02-23T23:33:33.582Z,3.19
2023-02-23T23:36:09.106Z,3.23
2023-02-23T23:38:46.076Z,3.22
2023-02-23T23:41:27.212Z,3.27
2023-02-23T23:44:06.515Z,3.33
2023-02-23T23:46:44.323Z,3.35
2023-02-23T23:49:27.854Z,3.33
2023-02-23T23:52:06.425Z,3.33
2023-02-23T23:54:43.393Z,3.31
2023-02-23T23:57:21.460Z,3.31
2023-02-23T23:59:59.171Z,3.30
